Terminal Aerodrome Forecast
Issued by NWS

Home | Current Version | Previous Version | Text Only | Print | Product List | Glossary Off
Versions: 1 2 3 4 5 6 7 8 9 10 11 12 13 14 15 16 17 18 19 20

000
FTUS43 KGRB 141500 AAA
TAFCWA
TAF AMD
KCWA 141546Z 1416/1512 33016G26KT P6SM SCT012 OVC025
     FM141800 32014G24KT P6SM BKN035
     FM142300 32009KT P6SM BKN045
     FM150300 32006KT P6SM SKC=

USA.gov is the U.S. government's official web portal to all federal, state and local government web resources and services.